Time;durP1;ratioP1;P1;durP2;ratioP2;P2;SDS_P1;SDS_P2;PMS_P1;PMS_P2;Temp;Humidity;BMP_temperature;BMP_pressure;BME280_temperature;BME280_humidity;BME280_pressure;Samples;Min_cycle;Max_cycle;Signal;HPM_P1;HPM_P2
2023/07/21 00:02:07;;;;;;;;;;;;;;;;;;4956847;28;19946;-76
2023/07/21 00:04:54;;;;;;;;;;;;;;;;;;4958620;28;19953;-76
2023/07/21 00:07:40;;;;;;;;;;;;;;;;;;4966300;28;19945;-75
2023/07/21 00:10:27;;;;;;;;;;;;;;;;;;4969739;28;19919;-74
2023/07/21 00:13:13;;;;;;;;;;;;;;;;;;4967598;28;19937;-75
2023/07/21 00:16:02;;;;;;;;;;;;;;;;;;4963484;28;19941;-75
2023/07/21 00:18:49;;;;;;;;;;;;;;;;;;4952106;28;19928;-75
2023/07/21 00:21:36;;;;;;;;;;;;;;;;;;4948273;28;20060;-76
2023/07/21 00:24:22;;;;;;;;;;;;;;;;;;4968759;28;20372;-76
2023/07/21 00:27:10;;;;;;;;;;;;;;;;;;4962900;28;19922;-76
2023/07/21 00:29:57;;;;;;;;;;;;;;;;;;4965310;28;20499;-76
2023/07/21 00:32:43;;;;;;;;;;;;;;;;;;4962387;28;19922;-77
2023/07/21 00:35:31;;;;;;;;;;;;;;;;;;4967843;28;19937;-77
2023/07/21 00:38:17;;;;;;;;;;;;;;;;;;4949612;28;19933;-77
2023/07/21 00:41:04;;;;;;;;;;;;;;;;;;4955349;28;19929;-77
2023/07/21 00:43:50;;;;;;;;;;;;;;;;;;4961622;28;19920;-75
2023/07/21 00:46:37;;;;;;;;;;;;;;;;;;4958128;28;19998;-77
2023/07/21 00:49:23;;;;;;;;;;;;;;;;;;4952031;28;19922;-77
2023/07/21 00:52:12;;;;;;;;;;;;;;;;;;4950943;28;19918;-76
2023/07/21 00:54:59;;;;;;;;;;;;;;;;;;4950412;28;20406;-77
2023/07/21 00:57:45;;;;;;;;;;;;;;;;;;4964387;28;19928;-76
2023/07/21 01:00:32;;;;;;;;;;;;;;;;;;4964304;28;19948;-76
2023/07/21 01:03:18;;;;;;;;;;;;;;;;;;4966021;28;19922;-75
2023/07/21 01:06:05;;;;;;;;;;;;;;;;;;4961133;28;19929;-81
2023/07/21 01:08:51;;;;;;;;;;;;;;;;;;4965528;28;19953;-75
2023/07/21 01:11:38;;;;;;;;;;;;;;;;;;4962965;28;19918;-76
2023/07/21 01:14:24;;;;;;;;;;;;;;;;;;4961106;28;19918;-75
2023/07/21 01:17:11;;;;;;;;;;;;;;;;;;4960271;28;20374;-76
2023/07/21 01:19:58;;;;;;;;;;;;;;;;;;4960278;28;19924;-75
2023/07/21 01:22:44;;;;;;;;;;;;;;;;;;4956194;28;20485;-75
2023/07/21 01:25:31;;;;;;;;;;;;;;;;;;4953069;28;19929;-75
2023/07/21 01:28:17;;;;;;;;;;;;;;;;;;4942056;28;20398;-74
2023/07/21 01:31:04;;;;;;;;;;;;;;;;;;4958869;28;20393;-75
2023/07/21 01:33:50;;;;;;;;;;;;;;;;;;4956286;28;19918;-76
2023/07/21 01:36:37;;;;;;;;;;;;;;;;;;4963234;28;19926;-77
2023/07/21 01:39:24;;;;;;;;;;;;;;;;;;4966539;28;19929;-76
2023/07/21 01:42:10;;;;;;;;;;;;;;;;;;4956019;28;19970;-75
2023/07/21 01:44:57;;;;;;;;;;;;;;;;;;4957636;28;19918;-76
2023/07/21 01:47:43;;;;;;;;;;;;;;;;;;4951180;28;19922;-75
2023/07/21 01:50:30;;;;;;;;;;;;;;;;;;4955577;28;19926;-76
2023/07/21 01:53:18;;;;;;;;;;;;;;;;;;4961040;28;19922;-75
2023/07/21 01:56:04;;;;;;;;;;;;;;;;;;4948446;28;19930;-76
2023/07/21 01:58:50;;;;;;;;;;;;;;;;;;4958225;28;19929;-76
2023/07/21 02:01:37;;;;;;;;;;;;;;;;;;4960507;28;20368;-76
2023/07/21 02:04:23;;;;;;;;;;;;;;;;;;4956697;28;19930;-75
2023/07/21 02:07:11;;;;;;;;;;;;;;;;;;4960118;28;19924;-75
2023/07/21 02:09:57;;;;;;;;;;;;;;;;;;4954543;28;19941;-76
2023/07/21 02:12:44;;;;;;;;;;;;;;;;;;4945854;28;19926;-76
2023/07/21 02:15:31;;;;;;;;;;;;;;;;;;4944873;28;19954;-76
2023/07/21 02:18:17;;;;;;;;;;;;;;;;;;4937369;28;19926;-77
2023/07/21 02:21:04;;;;;;;;;;;;;;;;;;4950520;28;19918;-75
2023/07/21 02:23:50;;;;;;;;;;;;;;;;;;4949163;28;20588;-75
2023/07/21 02:26:37;;;;;;;;;;;;;;;;;;4960526;28;20538;-76
2023/07/21 02:29:23;;;;;;;;;;;;;;;;;;4962026;28;19961;-75
2023/07/21 02:32:10;;;;;;;;;;;;;;;;;;4958792;28;19933;-75
2023/07/21 02:34:58;;;;;;;;;;;;;;;;;;4959162;28;19941;-78
2023/07/21 02:37:44;;;;;;;;;;;;;;;;;;4962695;28;20016;-75
2023/07/21 02:40:31;;;;;;;;;;;;;;;;;;4965332;28;20401;-75
2023/07/21 02:43:17;;;;;;;;;;;;;;;;;;4959746;28;20373;-75
2023/07/21 02:46:04;;;;;;;;;;;;;;;;;;4967057;28;19922;-75
2023/07/21 02:48:50;;;;;;;;;;;;;;;;;;4953791;28;20389;-75
2023/07/21 02:51:37;;;;;;;;;;;;;;;;;;4954197;28;19929;-76
2023/07/21 02:54:23;;;;;;;;;;;;;;;;;;4952814;28;19923;-76
2023/07/21 02:57:10;;;;;;;;;;;;;;;;;;4965623;28;19937;-75
2023/07/21 02:59:56;;;;;;;;;;;;;;;;;;4963935;28;20384;-76
2023/07/21 03:02:43;;;;;;;;;;;;;;;;;;4965599;28;19921;-76
2023/07/21 03:05:29;;;;;;;;;;;;;;;;;;4965468;28;20316;-77
2023/07/21 03:08:19;;;;;;;;;;;;;;;;;;4963737;28;19922;-75
2023/07/21 03:11:06;;;;;;;;;;;;;;;;;;4964043;28;19922;-75
2023/07/21 03:13:52;;;;;;;;;;;;;;;;;;4949012;28;19919;-75
2023/07/21 03:16:40;;;;;;;;;;;;;;;;;;4966713;28;19934;-75
2023/07/21 03:19:27;;;;;;;;;;;;;;;;;;4966392;28;19944;-76
2023/07/21 03:22:16;;;;;;;;;;;;;;;;;;4962290;28;19925;-77
2023/07/21 03:25:05;;;;;;;;;;;;;;;;;;4965754;28;19918;-75
2023/07/21 03:27:51;;;;;;;;;;;;;;;;;;4964162;28;19946;-77
2023/07/21 03:30:39;;;;;;;;;;;;;;;;;;4966098;28;19933;-76
2023/07/21 03:33:25;;;;;;;;;;;;;;;;;;4952449;28;19922;-76
2023/07/21 03:36:12;;;;;;;;;;;;;;;;;;4960426;28;19931;-76
2023/07/21 03:38:58;;;;;;;;;;;;;;;;;;4961375;28;19929;-76
2023/07/21 03:41:45;;;;;;;;;;;;;;;;;;4970549;28;19937;-77
2023/07/21 03:44:31;;;;;;;;;;;;;;;;;;4962460;28;19923;-77
2023/07/21 03:47:19;;;;;;;;;;;;;;;;;;4960104;28;19944;-77
2023/07/21 03:50:08;;;;;;;;;;;;;;;;;;4964375;28;19933;-77
2023/07/21 03:52:54;;;;;;;;;;;;;;;;;;4967632;28;19929;-76
2023/07/21 03:55:41;;;;;;;;;;;;;;;;;;4975852;28;19930;-77
2023/07/21 03:58:27;;;;;;;;;;;;;;;;;;4973067;28;19929;-78
2023/07/21 04:01:15;;;;;;;;;;;;;;;;;;4966478;28;19938;-74
2023/07/21 04:04:02;;;;;;;;;;;;;;;;;;4965684;28;19922;-75
2023/07/21 04:06:48;;;;;;;;;;;;;;;;;;4968730;28;19929;-76
2023/07/21 04:09:34;;;;;;;;;;;;;;;;;;4966726;28;19922;-74
2023/07/21 04:12:21;;;;;;;;;;;;;;;;;;4962932;28;19922;-74
2023/07/21 04:15:07;;;;;;;;;;;;;;;;;;4966576;28;19930;-75
2023/07/21 04:17:54;;;;;;;;;;;;;;;;;;4954352;28;19934;-75
2023/07/21 04:20:40;;;;;;;;;;;;;;;;;;4944201;28;19956;-76
2023/07/21 04:23:27;;;;;;;;;;;;;;;;;;4960269;28;20386;-75
2023/07/21 04:26:15;;;;;;;;;;;;;;;;;;4972557;28;19926;-78
2023/07/21 04:29:02;;;;;;;;;;;;;;;;;;4965151;28;19922;-75
2023/07/21 04:31:48;;;;;;;;;;;;;;;;;;4949989;28;19921;-75
2023/07/21 04:34:35;;;;;;;;;;;;;;;;;;4967986;28;19918;-76
2023/07/21 04:37:21;;;;;;;;;;;;;;;;;;4961430;28;19918;-75
2023/07/21 04:40:08;;;;;;;;;;;;;;;;;;4958640;28;19953;-75
2023/07/21 04:42:54;;;;;;;;;;;;;;;;;;4965959;28;19925;-76
2023/07/21 04:45:41;;;;;;;;;;;;;;;;;;4956121;28;19929;-74
2023/07/21 04:48:28;;;;;;;;;;;;;;;;;;4942740;28;19938;-75
2023/07/21 04:51:14;;;;;;;;;;;;;;;;;;4967967;28;19921;-74
2023/07/21 04:54:01;;;;;;;;;;;;;;;;;;4960145;28;20654;-75
2023/07/21 04:56:47;;;;;;;;;;;;;;;;;;4966025;28;20678;-75
2023/07/21 04:59:34;;;;;;;;;;;;;;;;;;4966005;28;19922;-77
2023/07/21 05:02:23;;;;;;;;;;;;;;;;;;4954575;28;19926;-76
2023/07/21 05:05:09;;;;;;;;;;;;;;;;;;4952188;28;19941;-76
2023/07/21 05:07:59;;;;;;;;;;;;;;;;;;4957390;28;19927;-77
2023/07/21 05:10:46;;;;;;;;;;;;;;;;;;4951923;28;19922;-78
2023/07/21 05:13:32;;;;;;;;;;;;;;;;;;4973788;28;20525;-77
2023/07/21 05:16:19;;;;;;;;;;;;;;;;;;4964823;28;19930;-76
2023/07/21 05:19:05;;;;;;;;;;;;;;;;;;4970036;28;19946;-75
2023/07/21 05:21:52;;;;;;;;;;;;;;;;;;4969501;28;20354;-77
2023/07/21 05:24:39;;;;;;;;;;;;;;;;;;4958415;28;19922;-77
2023/07/21 05:27:25;;;;;;;;;;;;;;;;;;4963836;28;19925;-77
2023/07/21 05:30:13;;;;;;;;;;;;;;;;;;4969945;28;19918;-78
2023/07/21 05:32:59;;;;;;;;;;;;;;;;;;4969888;28;19926;-75
2023/07/21 05:35:46;;;;;;;;;;;;;;;;;;4961951;28;19955;-76
2023/07/21 05:38:32;;;;;;;;;;;;;;;;;;4963046;28;19925;-76
2023/07/21 05:41:19;;;;;;;;;;;;;;;;;;4970956;28;19929;-76
2023/07/21 05:44:05;;;;;;;;;;;;;;;;;;4958362;28;19926;-76
2023/07/21 05:46:52;;;;;;;;;;;;;;;;;;4960202;28;20492;-77
2023/07/21 05:49:38;;;;;;;;;;;;;;;;;;4952040;28;19922;-76
2023/07/21 05:52:26;;;;;;;;;;;;;;;;;;4957375;28;19930;-76
2023/07/21 05:55:12;;;;;;;;;;;;;;;;;;4967273;28;19926;-76
2023/07/21 05:57:59;;;;;;;;;;;;;;;;;;4962664;28;19929;-76
2023/07/21 06:00:45;;;;;;;;;;;;;;;;;;4961435;28;19922;-76
2023/07/21 06:03:32;;;;;;;;;;;;;;;;;;4963711;28;19968;-77
2023/07/21 06:06:18;;;;;;;;;;;;;;;;;;4962239;28;20639;-77
2023/07/21 06:09:05;;;;;;;;;;;;;;;;;;4964879;28;19928;-76
2023/07/21 06:11:51;;;;;;;;;;;;;;;;;;4965827;28;19922;-77
2023/07/21 06:14:38;;;;;;;;;;;;;;;;;;4965466;28;19948;-77
2023/07/21 06:17:26;;;;;;;;;;;;;;;;;;4969683;28;19922;-77
2023/07/21 06:20:13;;;;;;;;;;;;;;;;;;4967875;28;19929;-78
2023/07/21 06:23:00;;;;;;;;;;;;;;;;;;4964182;28;20304;-77
2023/07/21 06:25:47;;;;;;;;;;;;;;;;;;4959979;28;19922;-76
2023/07/21 06:28:35;;;;;;;;;;;;;;;;;;4955292;28;20297;-73
2023/07/21 06:31:23;;;;;;;;;;;;;;;;;;4953848;28;19929;-72
2023/07/21 06:34:09;;;;;;;;;;;;;;;;;;4959298;28;20296;-77
2023/07/21 06:36:56;;;;;;;;;;;;;;;;;;4957835;28;19934;-78
2023/07/21 06:39:42;;;;;;;;;;;;;;;;;;4967150;28;19926;-79
2023/07/21 06:42:29;;;;;;;;;;;;;;;;;;4973854;28;19922;-77
2023/07/21 06:45:15;;;;;;;;;;;;;;;;;;4954159;28;19929;-79
2023/07/21 06:48:02;;;;;;;;;;;;;;;;;;4970519;28;19922;-78
2023/07/21 06:50:48;;;;;;;;;;;;;;;;;;4974242;28;19956;-78
2023/07/21 06:53:35;;;;;;;;;;;;;;;;;;4968292;28;19918;-76
2023/07/21 06:56:21;;;;;;;;;;;;;;;;;;4969019;28;19953;-75
2023/07/21 06:59:08;;;;;;;;;;;;;;;;;;4968266;28;19925;-84
2023/07/21 07:01:55;;;;;;;;;;;;;;;;;;4967213;28;19922;-84
2023/07/21 07:04:41;;;;;;;;;;;;;;;;;;4967277;28;19923;-86
2023/07/21 07:07:28;;;;;;;;;;;;;;;;;;4948528;28;19923;-82
2023/07/21 07:10:14;;;;;;;;;;;;;;;;;;4965489;28;20478;-78
2023/07/21 07:13:01;;;;;;;;;;;;;;;;;;4970882;28;19926;-82
2023/07/21 07:15:47;;;;;;;;;;;;;;;;;;4982811;28;19930;-78
2023/07/21 07:18:33;;;;;;;;;;;;;;;;;;4974794;28;20259;-72
2023/07/21 07:21:21;;;;;;;;;;;;;;;;;;4965602;28;19926;-71
2023/07/21 07:24:07;;;;;;;;;;;;;;;;;;4971332;28;20035;-71
2023/07/21 07:26:54;;;;;;;;;;;;;;;;;;4971201;28;19933;-71
2023/07/21 07:29:40;;;;;;;;;;;;;;;;;;4972150;28;19944;-71
2023/07/21 07:32:27;;;;;;;;;;;;;;;;;;4967991;28;19922;-72
2023/07/21 07:35:13;;;;;;;;;;;;;;;;;;4969815;28;19937;-70
2023/07/21 07:38:00;;;;;;;;;;;;;;;;;;4967506;28;19922;-71
2023/07/21 07:40:47;;;;;;;;;;;;;;;;;;4969538;28;19928;-71
2023/07/21 07:43:33;;;;;;;;;;;;;;;;;;4964257;28;19936;-70
2023/07/21 07:46:20;;;;;;;;;;;;;;;;;;4971555;28;19926;-71
2023/07/21 07:49:06;;;;;;;;;;;;;;;;;;4957721;28;19918;-71
2023/07/21 07:51:53;;;;;;;;;;;;;;;;;;4965191;28;19925;-72
2023/07/21 07:54:40;;;;;;;;;;;;;;;;;;4965915;28;19928;-80
2023/07/21 07:57:26;;;;;;;;;;;;;;;;;;4965336;28;19934;-72
2023/07/21 08:00:14;;;;;;;;;;;;;;;;;;4971837;28;19945;-72
2023/07/21 08:03:01;;;;;;;;;;;;;;;;;;4967321;28;20397;-73
2023/07/21 08:05:48;;;;;;;;;;;;;;;;;;4945491;28;19926;-72
2023/07/21 08:08:35;;;;;;;;;;;;;;;;;;4968044;28;19921;-71
2023/07/21 08:11:22;;;;;;;;;;;;;;;;;;4972637;28;20349;-73
2023/07/21 08:14:08;;;;;;;;;;;;;;;;;;4942837;28;19934;-72
2023/07/21 08:16:55;;;;;;;;;;;;;;;;;;4976381;28;19930;-72
2023/07/21 08:19:41;;;;;;;;;;;;;;;;;;4957189;28;19922;-72
2023/07/21 08:22:28;;;;;;;;;;;;;;;;;;4949299;28;19928;-72
2023/07/21 08:25:14;;;;;;;;;;;;;;;;;;4956410;28;20575;-72
2023/07/21 08:28:03;;;;;;;;;;;;;;;;;;4951218;28;19922;-73
2023/07/21 08:30:49;;;;;;;;;;;;;;;;;;4950035;28;19918;-72
2023/07/21 08:33:36;;;;;;;;;;;;;;;;;;4970507;28;19949;-72
2023/07/21 08:36:23;;;;;;;;;;;;;;;;;;4970432;28;19961;-72
2023/07/21 08:39:10;;;;;;;;;;;;;;;;;;4966164;28;19929;-72
2023/07/21 08:41:57;;;;;;;;;;;;;;;;;;4966346;28;19926;-72
2023/07/21 08:44:43;;;;;;;;;;;;;;;;;;4957244;28;19918;-72
2023/07/21 08:47:29;;;;;;;;;;;;;;;;;;4969112;28;19922;-75
2023/07/21 08:50:18;;;;;;;;;;;;;;;;;;4967881;28;20329;-80
2023/07/21 08:53:04;;;;;;;;;;;;;;;;;;4957523;28;19922;-79
2023/07/21 08:55:51;;;;;;;;;;;;;;;;;;4956405;28;19938;-80
2023/07/21 08:58:37;;;;;;;;;;;;;;;;;;4942005;28;20351;-79
2023/07/21 09:01:24;;;;;;;;;;;;;;;;;;4955586;28;20283;-78
2023/07/21 09:04:10;;;;;;;;;;;;;;;;;;4967647;28;20371;-80
2023/07/21 09:06:57;;;;;;;;;;;;;;;;;;4964669;28;19922;-79
2023/07/21 09:09:43;;;;;;;;;;;;;;;;;;4966466;28;19923;-80
2023/07/21 09:12:30;;;;;;;;;;;;;;;;;;4961765;28;19928;-79
2023/07/21 09:15:16;;;;;;;;;;;;;;;;;;4962366;28;19926;-79
2023/07/21 09:18:03;;;;;;;;;;;;;;;;;;4970118;28;19922;-79
2023/07/21 09:20:49;;;;;;;;;;;;;;;;;;4944796;28;19937;-80
2023/07/21 09:23:36;;;;;;;;;;;;;;;;;;4958364;28;20532;-80
2023/07/21 09:26:22;;;;;;;;;;;;;;;;;;4958320;28;19922;-79
2023/07/21 09:29:09;;;;;;;;;;;;;;;;;;4962643;28;19928;-80
2023/07/21 09:31:55;;;;;;;;;;;;;;;;;;4965369;28;19929;-80
2023/07/21 09:34:42;;;;;;;;;;;;;;;;;;4969877;28;19933;-83
2023/07/21 09:37:28;;;;;;;;;;;;;;;;;;4962674;28;20011;-78
2023/07/21 09:40:15;;;;;;;;;;;;;;;;;;4961490;28;19926;-79
2023/07/21 09:43:01;;;;;;;;;;;;;;;;;;4970215;28;19933;-79
2023/07/21 09:45:48;;;;;;;;;;;;;;;;;;4964766;28;19940;-79
2023/07/21 09:48:34;;;;;;;;;;;;;;;;;;4930582;28;19923;-80
2023/07/21 09:51:21;;;;;;;;;;;;;;;;;;4962461;28;20449;-79
2023/07/21 09:54:08;;;;;;;;;;;;;;;;;;4970581;28;19918;-80
2023/07/21 09:56:54;;;;;;;;;;;;;;;;;;4968366;28;20396;-79
2023/07/21 09:59:41;;;;;;;;;;;;;;;;;;4971296;28;19918;-79
2023/07/21 10:02:27;;;;;;;;;;;;;;;;;;4971474;28;19980;-80
2023/07/21 10:05:14;;;;;;;;;;;;;;;;;;4972318;28;19922;-80
2023/07/21 10:08:02;;;;;;;;;;;;;;;;;;4974965;28;19922;-79
2023/07/21 10:10:49;;;;;;;;;;;;;;;;;;4974016;28;19939;-79
2023/07/21 10:13:35;;;;;;;;;;;;;;;;;;4969446;28;19914;-79
2023/07/21 10:16:22;;;;;;;;;;;;;;;;;;4942761;28;19943;-79
2023/07/21 10:19:10;;;;;;;;;;;;;;;;;;4955109;28;19924;-79
2023/07/21 10:21:56;;;;;;;;;;;;;;;;;;4966811;28;19933;-81
2023/07/21 10:24:44;;;;;;;;;;;;;;;;;;4970052;28;19926;-78
2023/07/21 10:27:30;;;;;;;;;;;;;;;;;;4962388;28;19933;-79
2023/07/21 10:30:17;;;;;;;;;;;;;;;;;;4970678;28;19929;-79
2023/07/21 10:33:03;;;;;;;;;;;;;;;;;;4946139;28;19926;-79
2023/07/21 10:35:50;;;;;;;;;;;;;;;;;;4966419;28;19919;-78
2023/07/21 10:38:36;;;;;;;;;;;;;;;;;;4967718;28;19929;-78
2023/07/21 10:41:23;;;;;;;;;;;;;;;;;;4967876;28;20365;-79
2023/07/21 10:44:09;;;;;;;;;;;;;;;;;;4966009;28;19922;-79
2023/07/21 10:46:56;;;;;;;;;;;;;;;;;;4965825;28;20362;-78
2023/07/21 10:49:42;;;;;;;;;;;;;;;;;;4961887;28;19922;-78
2023/07/21 10:52:28;;;;;;;;;;;;;;;;;;4969373;28;19928;-79
2023/07/21 10:55:15;;;;;;;;;;;;;;;;;;4952499;28;19922;-80
2023/07/21 10:58:01;;;;;;;;;;;;;;;;;;4969482;28;19929;-79
2023/07/21 11:00:48;;;;;;;;;;;;;;;;;;4955530;28;19929;-79
2023/07/21 11:03:35;;;;;;;;;;;;;;;;;;4969708;28;20398;-79
2023/07/21 11:06:22;;;;;;;;;;;;;;;;;;4962490;28;19929;-77
2023/07/21 11:09:11;;;;;;;;;;;;;;;;;;4964450;28;19914;-81
2023/07/21 11:11:58;;;;;;;;;;;;;;;;;;4963687;28;19922;-80
2023/07/21 11:14:44;;;;;;;;;;;;;;;;;;4963148;28;20358;-79
2023/07/21 11:17:31;;;;;;;;;;;;;;;;;;4966950;28;20310;-79
2023/07/21 11:20:17;;;;;;;;;;;;;;;;;;4967289;28;19922;-80
2023/07/21 11:23:04;;;;;;;;;;;;;;;;;;4962495;28;20293;-79
2023/07/21 11:25:50;;;;;;;;;;;;;;;;;;4968983;28;19933;-79
2023/07/21 11:28:37;;;;;;;;;;;;;;;;;;4974733;28;19938;-79
2023/07/21 11:31:25;;;;;;;;;;;;;;;;;;4969269;28;19929;-80
2023/07/21 11:34:11;;;;;;;;;;;;;;;;;;4948135;28;19930;-79
2023/07/21 11:36:58;;;;;;;;;;;;;;;;;;4967538;28;19930;-80
2023/07/21 11:39:45;;;;;;;;;;;;;;;;;;4954736;28;19919;-80
2023/07/21 11:42:31;;;;;;;;;;;;;;;;;;4960633;28;19929;-78
2023/07/21 11:45:18;;;;;;;;;;;;;;;;;;4973018;28;19932;-80
2023/07/21 11:48:04;;;;;;;;;;;;;;;;;;4960222;28;20278;-80
2023/07/21 11:50:51;;;;;;;;;;;;;;;;;;4966903;28;19922;-80
2023/07/21 11:53:37;;;;;;;;;;;;;;;;;;4972172;28;19922;-79
2023/07/21 11:56:24;;;;;;;;;;;;;;;;;;4966926;28;19941;-79
2023/07/21 11:59:10;;;;;;;;;;;;;;;;;;4971969;28;19922;-80
2023/07/21 12:01:57;;;;;;;;;;;;;;;;;;4950376;28;19922;-79
2023/07/21 12:04:43;;;;;;;;;;;;;;;;;;4973499;28;19929;-78
2023/07/21 12:07:30;;;;;;;;;;;;;;;;;;4963490;28;19925;-80
2023/07/21 12:10:16;;;;;;;;;;;;;;;;;;4973556;28;19944;-80
2023/07/21 12:13:04;;;;;;;;;;;;;;;;;;4975339;28;19921;-80
2023/07/21 12:15:50;;;;;;;;;;;;;;;;;;4967984;28;19926;-79
2023/07/21 12:18:37;;;;;;;;;;;;;;;;;;4965983;28;19932;-80
2023/07/21 12:21:23;;;;;;;;;;;;;;;;;;4968426;28;19922;-79
2023/07/21 12:24:09;;;;;;;;;;;;;;;;;;4969906;28;20601;-80
2023/07/21 12:26:56;;;;;;;;;;;;;;;;;;4968796;28;19918;-79
2023/07/21 12:29:42;;;;;;;;;;;;;;;;;;4967969;28;19929;-79
2023/07/21 12:32:29;;;;;;;;;;;;;;;;;;4971157;28;19922;-79
2023/07/21 12:35:15;;;;;;;;;;;;;;;;;;4973078;28;19925;-79
2023/07/21 12:38:02;;;;;;;;;;;;;;;;;;4962159;28;19930;-79
2023/07/21 12:40:48;;;;;;;;;;;;;;;;;;4987273;28;20289;-79
2023/07/21 12:43:35;;;;;;;;;;;;;;;;;;4966567;28;19933;-79
2023/07/21 12:46:21;;;;;;;;;;;;;;;;;;4948081;28;19992;-79
2023/07/21 12:49:08;;;;;;;;;;;;;;;;;;4970352;28;19922;-80
2023/07/21 12:51:55;;;;;;;;;;;;;;;;;;4965766;28;19928;-79
2023/07/21 12:54:41;;;;;;;;;;;;;;;;;;4970489;28;19925;-79
2023/07/21 12:57:28;;;;;;;;;;;;;;;;;;4961423;28;20277;-79
2023/07/21 13:00:14;;;;;;;;;;;;;;;;;;4975424;28;19922;-79
2023/07/21 13:03:01;;;;;;;;;;;;;;;;;;4958144;28;19929;-80
2023/07/21 13:05:47;;;;;;;;;;;;;;;;;;4961421;28;20275;-79
2023/07/21 13:08:34;;;;;;;;;;;;;;;;;;4965017;28;19929;-79
2023/07/21 13:11:20;;;;;;;;;;;;;;;;;;4966518;28;19922;-79
2023/07/21 13:14:07;;;;;;;;;;;;;;;;;;4965550;28;20370;-80
2023/07/21 13:16:53;;;;;;;;;;;;;;;;;;4939442;28;20301;-79
2023/07/21 13:19:40;;;;;;;;;;;;;;;;;;4959931;28;19922;-79
2023/07/21 13:22:26;;;;;;;;;;;;;;;;;;4969302;28;19922;-79
2023/07/21 13:25:13;;;;;;;;;;;;;;;;;;4970879;28;19924;-79
2023/07/21 13:27:59;;;;;;;;;;;;;;;;;;4965126;28;20370;-79
2023/07/21 13:30:46;;;;;;;;;;;;;;;;;;4971042;28;19922;-79
2023/07/21 13:33:32;;;;;;;;;;;;;;;;;;4973712;28;20427;-79
2023/07/21 13:36:19;;;;;;;;;;;;;;;;;;4979478;28;19930;-80
2023/07/21 13:39:05;;;;;;;;;;;;;;;;;;4972087;28;19923;-80
2023/07/21 13:41:52;;;;;;;;;;;;;;;;;;4964187;28;20284;-79
2023/07/21 13:44:38;;;;;;;;;;;;;;;;;;4968105;28;19922;-81
2023/07/21 13:47:25;;;;;;;;;;;;;;;;;;4971560;28;20488;-79
2023/07/21 13:50:11;;;;;;;;;;;;;;;;;;4954230;28;19930;-80
2023/07/21 13:52:58;;;;;;;;;;;;;;;;;;4973298;28;19922;-80
2023/07/21 13:55:44;;;;;;;;;;;;;;;;;;4952477;28;19922;-80
2023/07/21 13:58:31;;;;;;;;;;;;;;;;;;4969849;28;19926;-79
2023/07/21 14:01:17;;;;;;;;;;;;;;;;;;4971502;28;19921;-79
2023/07/21 14:04:04;;;;;;;;;;;;;;;;;;4965931;28;19922;-79
2023/07/21 14:06:50;;;;;;;;;;;;;;;;;;4958036;28;19928;-79
2023/07/21 14:09:36;;;;;;;;;;;;;;;;;;4971698;28;19940;-78
2023/07/21 14:12:23;;;;;;;;;;;;;;;;;;4962869;28;19972;-78
2023/07/21 14:15:11;;;;;;;;;;;;;;;;;;4967392;28;20453;-79
2023/07/21 14:17:57;;;;;;;;;;;;;;;;;;4969608;28;19934;-79
2023/07/21 14:20:44;;;;;;;;;;;;;;;;;;4966669;28;19998;-79
2023/07/21 14:23:31;;;;;;;;;;;;;;;;;;4967836;28;20298;-80
2023/07/21 14:26:17;;;;;;;;;;;;;;;;;;4963531;28;20002;-80
2023/07/21 14:29:04;;;;;;;;;;;;;;;;;;4974165;28;20294;-80
2023/07/21 14:31:51;;;;;;;;;;;;;;;;;;4962291;28;19926;-82
2023/07/21 14:34:38;;;;;;;;;;;;;;;;;;4976317;28;19995;-80
2023/07/21 14:37:24;;;;;;;;;;;;;;;;;;4950157;28;19976;-79
2023/07/21 14:40:11;;;;;;;;;;;;;;;;;;4969185;28;19928;-80
2023/07/21 14:42:57;;;;;;;;;;;;;;;;;;4961769;28;19919;-80
2023/07/21 14:45:44;;;;;;;;;;;;;;;;;;4965612;28;19918;-81
2023/07/21 14:48:31;;;;;;;;;;;;;;;;;;4964918;28;19930;-80
2023/07/21 14:51:18;;;;;;;;;;;;;;;;;;4974342;28;19918;-81
2023/07/21 14:54:05;;;;;;;;;;;;;;;;;;4946019;28;19933;-80
2023/07/21 14:56:52;;;;;;;;;;;;;;;;;;4955030;28;19930;-80
2023/07/21 14:59:38;;;;;;;;;;;;;;;;;;4968990;28;19922;-80
2023/07/21 15:02:26;;;;;;;;;;;;;;;;;;4964321;28;19925;-80
2023/07/21 15:05:13;;;;;;;;;;;;;;;;;;4964932;28;19936;-79
2023/07/21 15:07:59;;;;;;;;;;;;;;;;;;4955659;28;20668;-81
2023/07/21 15:10:46;;;;;;;;;;;;;;;;;;4958013;28;19922;-81
2023/07/21 15:13:33;;;;;;;;;;;;;;;;;;4967415;28;19925;-80
2023/07/21 15:16:19;;;;;;;;;;;;;;;;;;4957855;28;19922;-81
2023/07/21 15:19:06;;;;;;;;;;;;;;;;;;4945500;28;20305;-81
2023/07/21 15:21:53;;;;;;;;;;;;;;;;;;4964537;28;20370;-80
2023/07/21 15:24:40;;;;;;;;;;;;;;;;;;4968088;28;20398;-79
2023/07/21 15:27:26;;;;;;;;;;;;;;;;;;4957453;28;19922;-79
2023/07/21 15:30:13;;;;;;;;;;;;;;;;;;4951309;28;20306;-80
2023/07/21 15:33:00;;;;;;;;;;;;;;;;;;4939549;28;19948;-79
2023/07/21 15:35:46;;;;;;;;;;;;;;;;;;4965327;28;19929;-79
2023/07/21 15:38:33;;;;;;;;;;;;;;;;;;4972963;28;19929;-79
2023/07/21 15:41:19;;;;;;;;;;;;;;;;;;4983433;28;19918;-81
2023/07/21 15:44:06;;;;;;;;;;;;;;;;;;4962752;28;19922;-79
2023/07/21 15:46:52;;;;;;;;;;;;;;;;;;4962846;28;19918;-81
2023/07/21 15:49:40;;;;;;;;;;;;;;;;;;4958427;28;19918;-80
2023/07/21 15:52:26;;;;;;;;;;;;;;;;;;4952071;28;19922;-79
2023/07/21 15:55:13;;;;;;;;;;;;;;;;;;4966375;28;19915;-80
2023/07/21 15:58:00;;;;;;;;;;;;;;;;;;4953169;28;19930;-81
2023/07/21 16:00:46;;;;;;;;;;;;;;;;;;4967123;28;20649;-80
2023/07/21 16:03:33;;;;;;;;;;;;;;;;;;4958528;28;20302;-80
2023/07/21 16:06:19;;;;;;;;;;;;;;;;;;4957822;28;19918;-80
2023/07/21 16:09:06;;;;;;;;;;;;;;;;;;4953354;28;19918;-81
2023/07/21 16:11:53;;;;;;;;;;;;;;;;;;4967314;28;19922;-81
2023/07/21 16:14:40;;;;;;;;;;;;;;;;;;4954855;28;19914;-80
2023/07/21 16:17:26;;;;;;;;;;;;;;;;;;4965361;28;19943;-79
2023/07/21 16:20:13;;;;;;;;;;;;;;;;;;4965291;28;19944;-80
2023/07/21 16:22:59;;;;;;;;;;;;;;;;;;4956218;28;19922;-79
2023/07/21 16:25:46;;;;;;;;;;;;;;;;;;4955342;28;19918;-80
2023/07/21 16:28:32;;;;;;;;;;;;;;;;;;4963754;28;19924;-79
2023/07/21 16:31:19;;;;;;;;;;;;;;;;;;4961950;28;19918;-80
2023/07/21 16:34:05;;;;;;;;;;;;;;;;;;4963734;28;19926;-80
2023/07/21 16:36:54;;;;;;;;;;;;;;;;;;4951519;28;20533;-80
2023/07/21 16:39:40;;;;;;;;;;;;;;;;;;4965275;28;20412;-80
2023/07/21 16:42:27;;;;;;;;;;;;;;;;;;4954185;28;19918;-78
2023/07/21 16:45:14;;;;;;;;;;;;;;;;;;4965326;28;19929;-80
2023/07/21 16:48:00;;;;;;;;;;;;;;;;;;4977550;28;19928;-81
2023/07/21 16:50:47;;;;;;;;;;;;;;;;;;4978418;28;19924;-79
2023/07/21 16:53:33;;;;;;;;;;;;;;;;;;4965428;28;19921;-79
2023/07/21 16:56:20;;;;;;;;;;;;;;;;;;4950713;28;20738;-78
2023/07/21 16:59:08;;;;;;;;;;;;;;;;;;4948970;28;24310;-80
2023/07/21 17:01:55;;;;;;;;;;;;;;;;;;4966053;28;20276;-80
2023/07/21 17:04:41;;;;;;;;;;;;;;;;;;4967103;28;19922;-79
2023/07/21 17:07:28;;;;;;;;;;;;;;;;;;4963999;28;19921;-81
2023/07/21 17:10:14;;;;;;;;;;;;;;;;;;4956978;28;19918;-80
2023/07/21 17:13:01;;;;;;;;;;;;;;;;;;4966261;28;20965;-80
2023/07/21 17:15:47;;;;;;;;;;;;;;;;;;4961734;28;20148;-79
2023/07/21 17:18:34;;;;;;;;;;;;;;;;;;4960522;28;19941;-80
2023/07/21 17:21:20;;;;;;;;;;;;;;;;;;4966123;28;19925;-80
2023/07/21 17:24:07;;;;;;;;;;;;;;;;;;4957691;28;19925;-80
2023/07/21 17:26:53;;;;;;;;;;;;;;;;;;4955096;28;20386;-80
2023/07/21 17:29:40;;;;;;;;;;;;;;;;;;4958232;28;19926;-81
2023/07/21 17:32:27;;;;;;;;;;;;;;;;;;4961036;28;19918;-79
2023/07/21 17:35:13;;;;;;;;;;;;;;;;;;4960268;28;19938;-79
2023/07/21 17:38:00;;;;;;;;;;;;;;;;;;4958217;28;19926;-79
2023/07/21 17:40:46;;;;;;;;;;;;;;;;;;4960597;28;19922;-80
2023/07/21 17:43:33;;;;;;;;;;;;;;;;;;4972839;28;19934;-81
2023/07/21 17:46:19;;;;;;;;;;;;;;;;;;4964322;28;19919;-79
2023/07/21 17:49:06;;;;;;;;;;;;;;;;;;4964007;28;19957;-80
2023/07/21 17:51:52;;;;;;;;;;;;;;;;;;4955758;28;19920;-81
2023/07/21 17:54:39;;;;;;;;;;;;;;;;;;4963368;28;19926;-79
2023/07/21 17:57:25;;;;;;;;;;;;;;;;;;4949021;28;19938;-80
2023/07/21 18:00:13;;;;;;;;;;;;;;;;;;4964749;28;20726;-80
2023/07/21 18:03:00;;;;;;;;;;;;;;;;;;4964128;28;20461;-80
2023/07/21 18:05:46;;;;;;;;;;;;;;;;;;4965774;28;19922;-80
2023/07/21 18:08:33;;;;;;;;;;;;;;;;;;4966213;28;19925;-80
2023/07/21 18:11:19;;;;;;;;;;;;;;;;;;4967107;28;19927;-80
2023/07/21 18:14:06;;;;;;;;;;;;;;;;;;4973211;28;19953;-80
2023/07/21 18:16:52;;;;;;;;;;;;;;;;;;4963310;28;19923;-78
2023/07/21 18:19:39;;;;;;;;;;;;;;;;;;4964407;28;19918;-79
2023/07/21 18:22:28;;;;;;;;;;;;;;;;;;4965497;28;19932;-79
2023/07/21 18:25:15;;;;;;;;;;;;;;;;;;4970871;28;19930;-79
2023/07/21 18:28:02;;;;;;;;;;;;;;;;;;4952737;28;19922;-79
2023/07/21 18:30:49;;;;;;;;;;;;;;;;;;4952117;28;19957;-79
2023/07/21 18:33:35;;;;;;;;;;;;;;;;;;4964663;28;20285;-79
2023/07/21 18:36:22;;;;;;;;;;;;;;;;;;4973119;28;19934;-78
2023/07/21 18:39:08;;;;;;;;;;;;;;;;;;4951654;28;19922;-80
2023/07/21 18:41:55;;;;;;;;;;;;;;;;;;4968993;28;19933;-79
2023/07/21 18:44:41;;;;;;;;;;;;;;;;;;4957972;28;19922;-79
2023/07/21 18:47:27;;;;;;;;;;;;;;;;;;4970737;28;19918;-80
2023/07/21 18:50:14;;;;;;;;;;;;;;;;;;4968375;28;19922;-79
2023/07/21 18:53:01;;;;;;;;;;;;;;;;;;4978513;28;19918;-78
2023/07/21 18:55:47;;;;;;;;;;;;;;;;;;4964555;28;19930;-78
2023/07/21 18:58:33;;;;;;;;;;;;;;;;;;4965747;28;19933;-79